KPUW/PUW METAR and TAF weather

Enter ICAO airport designator
Station Type Date Time Source
KPUW METAR 2019/08/22 06:53 UTC NOAA

KPUW 220653Z AUTO 00000KT 10SM FEW007 OVC090 16/15 A2997 RMK AO2 SLP133 T01560150


Station Type Date Time Source
KPUW Decoded METAR 2019/08/22 06:53 UTC NOAA

Station name not available
Aug 22, 2019 - 02:53 AM EDT / 2019.08.22 0653 UTC
Wind: Calm:0
Visibility: 10 mile(s):0
Sky conditions: overcast
Temperature: 60.1 F (15.6 C)
Dew Point: 59.0 F (15.0 C)
Relative Humidity: 96%
Pressure (altimeter): 29.97 in. Hg (1014 hPa)
ob: KPUW 220653Z AUTO 00000KT 10SM FEW007 OVC090 16/15 A2997 RMK AO2 SLP133 T01560150
cycle: 7

Station Type Date Time Source
KPUW TAF 2019/08/22 06:40 UTC NOAA

TAF KPUW 220537Z 2206/2306 27005KT P6SM -SHRA SCT050 BKN080 OVC120
FM220800 25007KT P6SM VCSH SCT050 BKN080
FM221100 25005KT P6SM BKN020 OVC050
FM221800 27008KT P6SM SCT040
FM230100 VRB02KT P6SM SCT150

Example: see airport list